| time (UTC) | temp F | wind direction | speed knots | gust knots | rain 1hr in | rain 24hr in | rain mn in | humidity % | barometer mb |
| 20260506033513 | 55 | 0 | 0.0 | 0.0 | 0.02 | 0.12 | 0.12 | 95 | 1005.0 |
| 20260506032013 | 55 | 0 | 0.0 | 0.0 | 0.01 | 0.11 | 0.11 | 95 | 1004.9 |
| 20260506030510 | 55 | 0 | 0.0 | 0.0 | 0.01 | 0.11 | 0.11 | 95 | 1005.0 |
| 20260506025013 | 55 | 0 | 0.0 | 0.0 | 0.02 | 0.11 | 0.11 | 95 | 1005.1 |
| 20260506022010 | 55 | 0 | 0.0 | 0.0 | 0.01 | 0.10 | 0.10 | 95 | 1005.1 |
| 20260506015009 | 54 | 0 | 0.0 | 0.0 | 0.02 | 0.09 | 0.09 | 95 | 1005.1 |
| 20260506013510 | 54 | 0 | 0.0 | 0.0 | 0.02 | 0.09 | 0.09 | 94 | 1005.3 |
| 20260506010512 | 55 | 0 | 0.0 | 0.0 | 0.02 | 0.09 | 0.09 | 94 | 1005.3 |
| 20260506005014 | 55 | 0 | 0.0 | 0.0 | 0.02 | 0.08 | 0.08 | 95 | 1005.5 |
| 20260506003517 | 56 | 0 | 0.0 | 0.0 | 0.02 | 0.08 | 0.08 | 94 | 1005.5 |
| 20260506002014 | 56 | 0 | 0.0 | 0.0 | 0.02 | 0.07 | 0.07 | 94 | 1005.7 |
| 20260506000514 | 56 | 0 | 0.0 | 0.0 | 0.03 | 0.07 | 0.07 | 94 | 1005.7 |
| 20260505233514 | 57 | 0 | 0.0 | 0.0 | 0.03 | 0.06 | 0.06 | 94 | 1005.8 |
| 20260505232013 | 57 | 0 | 0.0 | 0.0 | 0.03 | 0.05 | 0.05 | 94 | 1005.9 |
| 20260505230514 | 57 | 0 | 0.0 | 0.0 | 0.03 | 0.04 | 0.04 | 94 | 1006.0 |
| 20260505225013 | 58 | 0 | 0.0 | 0.0 | 0.03 | 0.03 | 0.03 | 94 | 1006.1 |
| 20260505223516 | 58 | 0 | 0.0 | 0.0 | 0.02 | 0.02 | 0.02 | 94 | 1005.9 |
| 20260505220513 | 58 | 0 | 0.0 | 0.0 | 0.01 | 0.01 | 0.01 | 93 | 1005.9 |
| 20260505215013 | 58 | 0 | 0.0 | 0.0 | 0.04 | 0.20 | 0.20 | 93 | 1006.0 |
| 20260505213513 | 58 | 0 | 0.0 | 0.0 | 0.04 | 0.20 | 0.20 | 93 | 1006.2 |
| 20260505212013 | 58 | 0 | 0.0 | 0.0 | 0.04 | 0.19 | 0.19 | 92 | 1006.2 |
| 20260505210512 | 58 | 0 | 0.0 | 0.0 | 0.05 | 0.18 | 0.18 | 92 | 1006.2 |
| 20260505205012 | 58 | 0 | 0.0 | 0.0 | 0.03 | 0.17 | 0.17 | 91 | 1006.3 |
| 20260505203512 | 59 | 0 | 0.0 | 0.0 | 0.02 | 0.16 | 0.16 | 91 | 1006.2 |
| 20260505202012 | 60 | 0 | 0.0 | 0.0 | 0.02 | 0.15 | 0.15 | 91 | 1006.2 |
| 20260505195012 | 60 | 0 | 0.0 | 0.0 | 0.00 | 0.13 | 0.13 | 91 | 1006.0 |
| 20260505193512 | 60 | 0 | 0.0 | 0.0 | 0.00 | 0.13 | 0.13 | 90 | 1005.9 |
| 20260505192012 | 61 | 0 | 0.0 | 0.0 | 0.00 | 0.13 | 0.13 | 90 | 1006.0 |
| 20260505190511 | 61 | 0 | 0.0 | 0.0 | 0.00 | 0.13 | 0.13 | 90 | 1005.8 |
| 20260505183511 | 61 | 0 | 0.0 | 0.0 | 0.00 | 0.13 | 0.13 | 90 | 1005.6 |
| 20260505182012 | 62 | 0 | 0.0 | 0.0 | 0.00 | 0.13 | 0.13 | 90 | 1005.7 |
| 20260505175011 | 62 | 0 | 0.0 | 0.0 | 0.00 | 0.13 | 0.13 | 89 | 1005.6 |
| 20260505173511 | 62 | 0 | 0.0 | 0.0 | 0.00 | 0.13 | 0.13 | 89 | 1005.7 |
| 20260505172011 | 62 | 0 | 0.0 | 0.0 | 0.00 | 0.13 | 0.13 | 89 | 1005.7 |
| 20260505170510 | 62 | 0 | 0.0 | 0.0 | 0.00 | 0.13 | 0.13 | 88 | 1005.8 |
| 20260505165013 | 62 | 0 | 0.0 | 0.0 | 0.00 | 0.13 | 0.13 | 87 | 1005.8 |
| 20260505163510 | 62 | 0 | 0.0 | 0.0 | 0.00 | 0.13 | 0.13 | 88 | 1006.0 |
| 20260505162010 | 62 | 0 | 0.0 | 0.0 | 0.00 | 0.13 | 0.13 | 88 | 1006.0 |
| 20260505152013 | 62 | 0 | 0.0 | 0.0 | 0.06 | 0.13 | 0.13 | 89 | 1006.3 |
| 20260505150509 | 62 | 0 | 0.0 | 0.0 | 0.06 | 0.12 | 0.12 | 89 | 1006.4 |
| 20260505140514 | 62 | 0 | 0.0 | 0.0 | 0.06 | 0.06 | 0.06 | 87 | 1006.8 |
| 20260505125013 | 69 | 0 | 0.0 | 0.0 | 0.00 | 0.00 | 0.00 | 67 | 1006.6 |
| 20260505122016 | 69 | 0 | 0.0 | 0.0 | 0.00 | 0.00 | 0.00 | 66 | 1006.6 |
| 20260505120513 | 69 | 0 | 0.0 | 0.0 | 0.00 | 0.00 | 0.00 | 67 | 1006.4 |
| 20260505113513 | 69 | 0 | 0.0 | 0.0 | 0.00 | 0.00 | 0.00 | 68 | 1006.8 |
| 20260505112013 | 69 | 0 | 0.0 | 0.0 | 0.00 | 0.00 | 0.00 | 66 | 1006.9 |
| 20260505110512 | 69 | 0 | 0.0 | 0.0 | 0.00 | 0.00 | 0.00 | 65 | 1007.0 |
| 20260505102015 | 68 | 0 | 0.0 | 0.0 | 0.00 | 0.00 | 0.00 | 66 | 1007.4 |
| 20260505095012 | 68 | 0 | 0.0 | 0.0 | 0.00 | 0.00 | 0.00 | 67 | 1007.4 |
| 20260505093512 | 68 | 0 | 0.0 | 0.0 | 0.00 | 0.00 | 0.00 | 67 | 1007.5 |
| 20260505092011 | 67 | 0 | 0.0 | 0.0 | 0.00 | 0.00 | 0.00 | 67 | 1007.6 |
| 20260505090511 | 67 | 0 | 0.0 | 0.0 | 0.00 | 0.00 | 0.00 | 68 | 1007.7 |
| 20260505083511 | 66 | 0 | 0.0 | 0.0 | 0.00 | 0.00 | 0.00 | 70 | 1008.0 |
| 20260505082014 | 66 | 0 | 0.0 | 0.0 | 0.00 | 0.00 | 0.00 | 71 | 1008.0 |
| 20260505075014 | 66 | 0 | 0.0 | 0.0 | 0.00 | 0.00 | 0.00 | 73 | 1008.2 |
| 20260505073511 | 65 | 0 | 0.0 | 0.0 | 0.00 | 0.00 | 0.00 | 76 | 1008.3 |
| 20260505072010 | 64 | 0 | 0.0 | 0.0 | 0.00 | 0.00 | 0.00 | 79 | 1008.4 |
| 20260505070511 | 62 | 0 | 0.0 | 0.0 | 0.00 | 0.00 | 0.00 | 83 | 1008.3 |
| 20260505065011 | 61 | 0 | 0.0 | 0.0 | 0.00 | 0.00 | 0.00 | 85 | 1008.4 |
| 20260505063513 | 60 | 0 | 0.0 | 0.0 | 0.00 | 0.00 | 0.00 | 86 | 1008.5 |
| 20260505060513 | 59 | 0 | 0.0 | 0.0 | 0.00 | 0.00 | 0.00 | 87 | 1008.6 |
| 20260505055010 | 59 | 0 | 0.0 | 0.0 | 0.00 | 0.00 | 0.00 | 88 | 1008.6 |
| 20260505053513 | 58 | 0 | 0.0 | 0.0 | 0.00 | 0.00 | 0.00 | 88 | 1008.5 |
| 20260505052009 | 58 | 0 | 0.0 | 0.0 | 0.00 | 0.00 | 0.00 | 87 | 1008.4 |
| 20260505040514 | 58 | 0 | 0.0 | 0.0 | 0.00 | 0.00 | 0.00 | 85 | 1008.5 |
| 20260505035014 | 58 | 0 | 0.0 | 0.0 | 0.00 | 0.00 | 0.00 | 85 | 1008.5 |